createdAt,value
2023-02-03T00:00:56.861Z,7.50
2023-02-03T00:03:27.681Z,7.77
2023-02-03T00:05:59.730Z,7.30
2023-02-03T00:08:45.123Z,8.87
2023-02-03T00:11:14.761Z,7.57
2023-02-03T00:13:47.085Z,7.83
2023-02-03T00:16:24.041Z,9.47
2023-02-03T00:18:58.617Z,8.40
2023-02-03T00:21:42.366Z,9.13
2023-02-03T00:24:16.336Z,9.27
2023-02-03T00:26:46.953Z,8.27
2023-02-03T00:29:26.338Z,8.07
2023-02-03T00:32:00.795Z,8.60
2023-02-03T00:34:31.544Z,7.20
2023-02-03T00:37:04.154Z,8.20
2023-02-03T00:39:43.847Z,6.90
2023-02-03T00:42:14.030Z,7.30
2023-02-03T00:44:52.539Z,6.83
2023-02-03T00:47:32.667Z,7.17
2023-02-03T00:50:04.030Z,5.80
2023-02-03T00:52:34.332Z,6.80
2023-02-03T00:55:11.358Z,6.93
2023-02-03T00:57:45.390Z,6.93
2023-02-03T01:00:18.240Z,6.60
2023-02-03T01:02:48.827Z,6.20
2023-02-03T01:05:25.025Z,7.60
2023-02-03T01:08:01.479Z,8.07
2023-02-03T01:10:37.957Z,7.40
2023-02-03T01:13:08.034Z,7.40
2023-02-03T01:15:39.786Z,7.87
2023-02-03T01:18:16.792Z,7.37
2023-02-03T01:20:51.801Z,7.67
2023-02-03T01:23:23.268Z,7.80
2023-02-03T01:25:54.715Z,8.27
2023-02-03T01:28:24.555Z,9.17
2023-02-03T01:30:56.455Z,9.67
2023-02-03T01:33:28.798Z,9.17
2023-02-03T01:35:59.630Z,9.87
2023-02-03T01:38:29.142Z,8.50
2023-02-03T01:41:03.943Z,8.07
2023-02-03T01:43:36.100Z,8.23
2023-02-03T01:46:20.630Z,7.73
2023-02-03T01:48:52.292Z,7.50
2023-02-03T01:51:24.690Z,9.40
2023-02-03T01:54:00.091Z,8.43
2023-02-03T01:56:36.319Z,8.13
2023-02-03T01:59:09.086Z,7.43
2023-02-03T02:01:40.333Z,7.43
2023-02-03T02:04:12.496Z,6.30
2023-02-03T02:06:42.487Z,6.30
2023-02-03T02:09:18.507Z,6.30
2023-02-03T02:11:51.385Z,7.50
2023-02-03T02:14:22.059Z,5.77
2023-02-03T02:17:00.353Z,6.33
2023-02-03T02:20:01.928Z,6.80
2023-02-03T02:22:38.007Z,6.30
2023-02-03T02:25:29.920Z,6.87
2023-02-03T02:28:37.049Z,7.07
2023-02-03T02:31:35.656Z,6.67
2023-02-03T02:34:16.463Z,7.10
2023-02-03T02:37:02.633Z,6.83
2023-02-03T02:39:42.582Z,7.63
2023-02-03T02:42:20.567Z,6.90
2023-02-03T02:44:53.856Z,7.00
2023-02-03T02:47:25.924Z,6.37
2023-02-03T02:50:04.053Z,7.17
2023-02-03T02:52:39.261Z,6.90
2023-02-03T02:55:15.803Z,6.87
2023-02-03T02:57:47.980Z,6.83
2023-02-03T03:00:23.381Z,5.90
2023-02-03T03:02:54.203Z,5.97
2023-02-03T03:05:28.994Z,6.03
2023-02-03T03:08:04.115Z,5.30
2023-02-03T03:10:36.152Z,5.97
2023-02-03T03:13:10.513Z,6.30
2023-02-03T03:15:43.328Z,5.93
2023-02-03T03:18:16.623Z,6.60
2023-02-03T03:20:51.994Z,5.23
2023-02-03T03:23:29.103Z,7.20
2023-02-03T03:26:06.245Z,5.17
2023-02-03T03:28:43.986Z,5.80
2023-02-03T03:31:16.995Z,5.40
2023-02-03T03:33:48.512Z,5.23
2023-02-03T03:36:28.535Z,4.67
2023-02-03T03:39:04.264Z,5.07
2023-02-03T03:41:47.690Z,5.27
2023-02-03T03:44:24.664Z,5.87
2023-02-03T03:47:03.692Z,5.93
2023-02-03T03:49:36.055Z,5.73
2023-02-03T03:52:12.572Z,6.10
2023-02-03T03:54:46.551Z,6.07
2023-02-03T03:57:21.272Z,5.67
2023-02-03T03:59:57.417Z,6.30
2023-02-03T04:02:27.230Z,6.13
2023-02-03T04:05:02.085Z,6.67
2023-02-03T04:07:43.651Z,6.50
2023-02-03T04:10:22.587Z,6.10
2023-02-03T04:12:51.815Z,7.23
2023-02-03T04:15:22.918Z,6.60
2023-02-03T04:17:52.649Z,6.23
2023-02-03T04:20:24.317Z,5.93
2023-02-03T04:22:58.579Z,5.93
2023-02-03T04:25:31.375Z,5.67
2023-02-03T04:28:02.168Z,6.23
2023-02-03T04:30:31.578Z,6.23
2023-02-03T04:33:01.205Z,6.13
2023-02-03T04:35:32.347Z,5.57
2023-02-03T04:38:13.398Z,5.53
2023-02-03T04:40:49.091Z,5.53
2023-02-03T04:43:18.857Z,6.13
2023-02-03T04:45:49.066Z,5.47
2023-02-03T04:48:18.681Z,6.17
2023-02-03T04:50:53.266Z,5.47
2023-02-03T04:53:26.695Z,3.97
2023-02-03T04:56:00.555Z,4.20
2023-02-03T04:58:30.190Z,4.40
2023-02-03T05:01:00.473Z,4.17
2023-02-03T05:03:31.653Z,4.30
2023-02-03T05:06:06.171Z,3.67
2023-02-03T05:08:39.047Z,3.37
2023-02-03T05:11:10.459Z,3.33
2023-02-03T05:13:46.757Z,3.43
2023-02-03T05:16:16.435Z,3.53
2023-02-03T05:18:52.051Z,3.37
2023-02-03T05:21:22.035Z,3.77
2023-02-03T05:23:58.988Z,4.00
2023-02-03T05:26:30.851Z,3.40
2023-02-03T05:29:01.378Z,3.50
2023-02-03T05:31:32.088Z,2.83
2023-02-03T05:34:02.640Z,3.03
2023-02-03T05:36:32.996Z,3.17
2023-02-03T05:39:04.315Z,3.73
2023-02-03T05:41:51.202Z,3.80
2023-02-03T05:44:26.997Z,3.20
2023-02-03T05:47:00.925Z,4.30
2023-02-03T05:49:31.173Z,3.80
2023-02-03T05:52:00.723Z,3.60
2023-02-03T05:54:36.955Z,3.87
2023-02-03T05:57:06.997Z,3.27
2023-02-03T05:59:38.589Z,3.97
2023-02-03T06:02:15.480Z,3.73
2023-02-03T06:04:47.529Z,4.20
2023-02-03T06:07:19.751Z,4.10
2023-02-03T06:09:50.599Z,4.97
2023-02-03T06:12:25.317Z,4.47
2023-02-03T06:14:55.566Z,5.13
2023-02-03T06:17:25.520Z,4.53
2023-02-03T06:19:56.827Z,4.40
2023-02-03T06:22:26.582Z,4.93
2023-02-03T06:24:57.876Z,5.37
2023-02-03T06:27:32.026Z,5.50
2023-02-03T06:30:02.197Z,5.60
2023-02-03T06:32:32.214Z,5.70
2023-02-03T06:35:02.246Z,5.20
2023-02-03T06:37:32.143Z,5.33
2023-02-03T06:40:04.783Z,5.10
2023-02-03T06:42:35.346Z,5.80
2023-02-03T06:45:06.257Z,5.50
2023-02-03T06:47:38.469Z,5.13
2023-02-03T06:50:19.307Z,4.80
2023-02-03T06:52:51.586Z,5.40
2023-02-03T06:55:27.670Z,5.47
2023-02-03T06:57:59.486Z,5.83
2023-02-03T07:00:29.088Z,5.73
2023-02-03T07:03:02.681Z,5.63
2023-02-03T07:05:32.888Z,5.57
2023-02-03T07:08:03.152Z,5.60
2023-02-03T07:10:36.362Z,5.30
2023-02-03T07:13:11.683Z,5.37
2023-02-03T07:15:43.454Z,5.33
2023-02-03T07:18:17.991Z,5.80
2023-02-03T07:20:52.533Z,6.20
2023-02-03T07:23:24.545Z,5.93
2023-02-03T07:26:03.974Z,6.37
2023-02-03T08:39:37.068Z,3.70
2023-02-03T08:42:06.718Z,3.37
2023-02-03T08:44:36.565Z,3.70
2023-02-03T08:47:06.093Z,3.27
2023-02-03T08:49:36.126Z,4.13
2023-02-03T08:52:05.305Z,4.23
2023-02-03T08:54:36.791Z,4.43
2023-02-03T08:57:06.442Z,6.50
2023-02-03T08:59:36.935Z,12.37
2023-02-03T09:02:08.191Z,4.53
2023-02-03T09:04:38.469Z,5.00
2023-02-03T09:07:08.048Z,4.43
2023-02-03T09:09:38.871Z,5.20
2023-02-03T09:12:08.930Z,4.17
2023-02-03T09:14:38.228Z,5.07
2023-02-03T09:17:08.588Z,7.13
2023-02-03T09:19:41.780Z,6.17
2023-02-03T09:22:11.758Z,5.87
2023-02-03T09:24:42.373Z,5.63
2023-02-03T09:27:11.601Z,5.17
2023-02-03T09:29:40.641Z,4.40
2023-02-03T09:32:11.315Z,3.53
2023-02-03T09:34:42.182Z,5.43
2023-02-03T09:37:11.304Z,4.87
2023-02-03T09:39:42.274Z,5.53
2023-02-03T09:42:40.476Z,5.33
2023-02-03T09:45:19.548Z,5.30
2023-02-03T09:47:54.615Z,6.73
2023-02-03T09:50:26.783Z,5.73
2023-02-03T09:52:57.305Z,3.73
2023-02-03T09:55:34.242Z,5.40
2023-02-03T09:58:08.629Z,6.83
2023-02-03T10:00:41.746Z,6.67
2023-02-03T10:03:19.468Z,7.00
2023-02-03T10:06:08.691Z,6.27
2023-02-03T10:08:49.175Z,6.43
2023-02-03T10:11:28.246Z,7.17
2023-02-03T10:14:10.797Z,7.60
2023-02-03T10:16:58.525Z,10.50
2023-02-03T10:19:35.592Z,9.37
2023-02-03T10:22:07.443Z,8.80
2023-02-03T10:24:41.860Z,8.30
2023-02-03T10:27:20.543Z,8.67
2023-02-03T10:29:56.440Z,8.77
2023-02-03T10:32:27.907Z,11.60
2023-02-03T10:34:57.097Z,8.90
2023-02-03T10:37:31.356Z,6.60
2023-02-03T10:40:02.420Z,8.50
2023-02-03T10:42:48.855Z,7.37
2023-02-03T10:45:18.058Z,8.53
2023-02-03T10:47:51.937Z,7.90
2023-02-03T10:50:32.029Z,8.27
2023-02-03T10:53:22.884Z,9.03
2023-02-03T10:55:53.894Z,9.03
2023-02-03T10:58:28.874Z,9.40
2023-02-03T11:01:00.267Z,8.87
2023-02-03T11:03:30.993Z,10.30
2023-02-03T11:06:09.162Z,9.53
2023-02-03T11:08:40.556Z,6.20
2023-02-03T11:11:12.044Z,6.70
2023-02-03T11:13:42.616Z,5.63
2023-02-03T11:16:17.359Z,5.60
2023-02-03T11:18:54.235Z,5.70
2023-02-03T11:21:25.911Z,4.93
2023-02-03T11:24:03.980Z,6.23
2023-02-03T11:26:36.256Z,7.00
2023-02-03T11:29:08.686Z,5.67
2023-02-03T11:31:38.645Z,7.23
2023-02-03T11:34:17.119Z,5.57
2023-02-03T11:36:47.104Z,6.70
2023-02-03T11:39:30.455Z,5.70
2023-02-03T11:41:59.467Z,6.20
2023-02-03T11:44:31.589Z,5.83
2023-02-03T11:47:12.187Z,7.33
2023-02-03T11:50:19.745Z,6.17
2023-02-03T11:52:56.923Z,5.43
2023-02-03T11:55:37.830Z,5.20
2023-02-03T11:58:38.538Z,5.20
2023-02-03T12:01:16.538Z,4.47
2023-02-03T12:04:18.584Z,4.23
2023-02-03T12:07:18.896Z,4.37
2023-02-03T12:09:56.827Z,4.00
2023-02-03T12:12:45.798Z,4.10
2023-02-03T12:15:50.523Z,4.43
2023-02-03T12:18:40.815Z,4.23
2023-02-03T12:21:26.070Z,4.60
2023-02-03T12:23:59.593Z,5.73
2023-02-03T12:26:36.855Z,4.40
2023-02-03T12:29:11.679Z,4.13
2023-02-03T12:31:47.805Z,4.90
2023-02-03T12:34:24.867Z,4.43
2023-02-03T12:36:59.837Z,4.20
2023-02-03T12:39:35.819Z,3.00
2023-02-03T12:42:09.900Z,2.10
2023-02-03T12:44:47.483Z,1.77
2023-02-03T12:47:26.113Z,2.00
2023-02-03T12:50:05.211Z,1.90
2023-02-03T12:52:38.668Z,1.60
2023-02-03T12:55:20.562Z,1.93
2023-02-03T12:57:55.871Z,1.67
2023-02-03T13:00:36.946Z,1.77
2023-02-03T13:03:19.801Z,1.90
2023-02-03T13:05:58.822Z,1.83
2023-02-03T13:08:34.475Z,1.80
2023-02-03T13:11:21.749Z,2.20
2023-02-03T13:13:56.940Z,1.90
2023-02-03T13:16:33.578Z,1.80
2023-02-03T13:19:08.642Z,1.97
2023-02-03T13:21:42.925Z,1.70
2023-02-03T13:24:13.607Z,1.80
2023-02-03T13:27:16.438Z,2.00
2023-02-03T13:30:05.595Z,1.80
2023-02-03T13:32:51.196Z,1.63
2023-02-03T13:35:40.579Z,2.07
2023-02-03T13:38:39.279Z,1.57
2023-02-03T13:41:18.697Z,1.57
2023-02-03T13:43:52.103Z,2.17
2023-02-03T13:46:25.568Z,1.97
2023-02-03T13:48:56.310Z,1.97
2023-02-03T13:51:30.546Z,2.30
2023-02-03T13:54:04.121Z,2.70
2023-02-03T13:56:35.631Z,2.43
2023-02-03T13:59:07.869Z,1.80
2023-02-03T14:01:40.261Z,1.50
2023-02-03T14:04:10.898Z,1.57
2023-02-03T14:07:02.655Z,1.20
2023-02-03T14:09:48.399Z,1.10
2023-02-03T14:12:36.041Z,1.30
2023-02-03T14:15:23.334Z,1.43
2023-02-03T14:18:26.448Z,1.20
2023-02-03T14:21:22.745Z,1.40
2023-02-03T14:24:00.997Z,1.60
2023-02-03T14:26:45.552Z,1.77
2023-02-03T14:29:28.333Z,1.60
2023-02-03T14:32:02.997Z,1.57
2023-02-03T14:34:37.744Z,1.73
2023-02-03T14:37:17.463Z,1.30
2023-02-03T14:40:33.622Z,1.30
2023-02-03T14:43:29.528Z,1.80
2023-02-03T14:46:23.626Z,1.33
2023-02-03T14:49:06.503Z,1.37
2023-02-03T14:51:49.055Z,1.73
2023-02-03T14:54:34.527Z,1.93
2023-02-03T14:57:20.379Z,1.90
2023-02-03T14:59:52.006Z,1.87
2023-02-03T15:02:26.526Z,1.67
2023-02-03T15:05:34.544Z,2.03
2023-02-03T15:08:04.241Z,1.73
2023-02-03T15:10:44.061Z,1.70
2023-02-03T15:13:27.382Z,2.40
2023-02-03T15:15:58.598Z,2.10
2023-02-03T15:18:36.882Z,2.57
2023-02-03T15:21:07.501Z,2.17
2023-02-03T15:23:43.527Z,2.27
2023-02-03T15:26:15.733Z,2.40
2023-02-03T15:28:46.008Z,2.20
2023-02-03T15:31:21.102Z,2.80
2023-02-03T15:33:52.909Z,1.90
2023-02-03T15:36:28.998Z,2.30
2023-02-03T15:39:07.533Z,2.47
2023-02-03T15:41:37.331Z,1.93
2023-02-03T15:44:14.549Z,3.23
2023-02-03T15:46:49.950Z,2.40
2023-02-03T15:49:27.059Z,2.43
2023-02-03T15:51:59.652Z,2.67
2023-02-03T15:54:41.560Z,2.80
2023-02-03T15:57:13.755Z,2.43
2023-02-03T15:59:46.611Z,2.33
2023-02-03T16:02:20.359Z,2.20
2023-02-03T16:04:54.204Z,2.83
2023-02-03T16:07:25.809Z,2.67
2023-02-03T16:09:55.433Z,2.77
2023-02-03T16:12:26.653Z,2.97
2023-02-03T16:14:57.731Z,3.10
2023-02-03T16:17:30.844Z,3.43
2023-02-03T16:20:28.858Z,3.07
2023-02-03T16:23:19.743Z,3.03
2023-02-03T16:26:04.678Z,2.70
2023-02-03T16:28:51.429Z,2.80
2023-02-03T16:31:40.019Z,2.30
2023-02-03T16:34:48.894Z,2.40
2023-02-03T16:38:03.962Z,1.80
2023-02-03T16:40:50.054Z,1.80
2023-02-03T16:43:36.884Z,1.67
2023-02-03T16:46:28.901Z,1.37
2023-02-03T16:49:15.908Z,1.80
2023-02-03T16:51:47.894Z,1.57
2023-02-03T16:54:18.882Z,2.00
2023-02-03T16:56:48.155Z,1.73
2023-02-03T16:59:18.546Z,1.90
2023-02-03T17:01:53.047Z,2.10
2023-02-03T17:04:25.539Z,2.37
2023-02-03T17:06:55.207Z,1.80
2023-02-03T17:09:27.633Z,1.70
2023-02-03T17:11:57.860Z,1.73
2023-02-03T17:14:27.679Z,1.67
2023-02-03T17:16:59.143Z,1.93
2023-02-03T17:19:29.217Z,2.47
2023-02-03T17:21:58.568Z,2.43
2023-02-03T17:24:29.420Z,2.60
2023-02-03T17:26:59.107Z,2.80
2023-02-03T17:29:28.566Z,2.13
2023-02-03T17:31:58.274Z,2.80
2023-02-03T17:34:30.312Z,3.70
2023-02-03T17:37:00.426Z,2.97
2023-02-03T17:53:26.835Z,2.37
2023-02-03T17:55:58.799Z,3.50
2023-02-03T17:58:28.489Z,2.40
2023-02-03T18:00:58.213Z,2.77
2023-02-03T18:03:27.666Z,2.80
2023-02-03T18:05:58.371Z,2.90
2023-02-03T18:08:29.187Z,2.93
2023-02-03T18:11:03.545Z,2.47
2023-02-03T18:13:34.001Z,3.70
2023-02-03T18:16:03.377Z,3.90
2023-02-03T18:18:32.822Z,3.53
2023-02-03T18:21:04.785Z,2.70
2023-02-03T18:23:35.353Z,3.20
2023-02-03T18:26:07.386Z,3.13
2023-02-03T18:28:37.206Z,3.00
2023-02-03T18:31:08.280Z,3.73
2023-02-03T18:33:38.774Z,3.17
2023-02-03T18:36:09.389Z,3.37
2023-02-03T18:38:41.588Z,3.73
2023-02-03T18:41:17.370Z,3.47
2023-02-03T18:43:49.120Z,3.27
2023-02-03T18:46:20.517Z,2.63
2023-02-03T18:48:50.167Z,3.23
2023-02-03T18:51:21.113Z,3.63
2023-02-03T18:53:51.045Z,3.00
2023-02-03T18:56:24.243Z,4.67
2023-02-03T18:58:54.295Z,3.00
2023-02-03T19:01:26.569Z,3.87
2023-02-03T19:03:58.696Z,3.50
2023-02-03T19:06:30.421Z,2.40
2023-02-03T19:09:01.672Z,3.67
2023-02-03T19:11:34.113Z,2.37
2023-02-03T19:14:03.459Z,3.17
2023-02-03T19:16:33.634Z,3.07
2023-02-03T19:19:03.341Z,3.10
2023-02-03T19:21:33.612Z,3.37
2023-02-03T19:24:03.911Z,3.07
2023-02-03T19:26:35.310Z,2.80
2023-02-03T19:29:04.785Z,2.83
2023-02-03T19:31:36.303Z,3.17
2023-02-03T19:34:06.818Z,2.60
2023-02-03T19:36:39.422Z,2.73
2023-02-03T19:39:12.451Z,3.30
2023-02-03T19:41:45.359Z,2.80
2023-02-03T19:44:30.180Z,2.80
2023-02-03T19:47:28.137Z,2.40
2023-02-03T19:50:01.243Z,2.60
2023-02-03T19:52:33.909Z,2.57
2023-02-03T19:55:04.228Z,2.93
2023-02-03T19:57:36.137Z,3.00
2023-02-03T20:00:06.637Z,2.07
2023-02-03T20:02:46.369Z,2.17
2023-02-03T20:05:18.427Z,2.17
2023-02-03T20:07:48.764Z,2.50
2023-02-03T20:10:21.136Z,2.97
2023-02-03T20:12:52.977Z,2.67
2023-02-03T20:15:23.039Z,3.07
2023-02-03T20:17:53.054Z,2.60
2023-02-03T20:20:22.743Z,3.47
2023-02-03T20:22:53.752Z,3.13
2023-02-03T20:25:25.152Z,3.10
2023-02-03T20:27:57.942Z,3.73
2023-02-03T20:30:28.921Z,3.33
2023-02-03T20:32:59.595Z,3.00
2023-02-03T20:35:30.076Z,3.47
2023-02-03T20:37:59.741Z,3.30
2023-02-03T20:40:30.386Z,2.40
2023-02-03T20:43:07.619Z,3.20
2023-02-03T20:45:38.968Z,2.70
2023-02-03T20:48:11.339Z,3.60
2023-02-03T20:50:47.499Z,3.43
2023-02-03T20:53:20.871Z,2.80
2023-02-03T20:55:52.608Z,3.10
2023-02-03T20:58:27.423Z,2.70
2023-02-03T21:00:58.320Z,3.20
2023-02-03T21:03:45.441Z,2.47
2023-02-03T21:09:28.406Z,3.00
2023-02-03T21:11:58.793Z,2.07
2023-02-03T21:14:36.633Z,3.37
2023-02-03T21:17:09.495Z,2.67
2023-02-03T21:19:40.823Z,3.10
2023-02-03T21:22:19.438Z,2.40
2023-02-03T21:24:53.186Z,3.00
2023-02-03T21:27:30.587Z,2.77
2023-02-03T21:30:03.297Z,3.23
2023-02-03T21:32:39.626Z,2.80
2023-02-03T21:35:24.700Z,2.43
2023-02-03T21:38:01.446Z,3.33
2023-02-03T21:40:32.850Z,2.93
2023-02-03T21:43:04.227Z,3.27
2023-02-03T21:45:40.877Z,3.07
2023-02-03T21:48:32.221Z,2.97
2023-02-03T21:51:15.708Z,3.20
2023-02-03T21:53:54.436Z,2.10
2023-02-03T21:56:27.471Z,2.50
2023-02-03T21:59:00.579Z,3.53
2023-02-03T22:01:37.881Z,2.97
2023-02-03T22:04:08.138Z,2.60
2023-02-03T22:06:44.485Z,1.63
2023-02-03T22:09:14.791Z,2.57
2023-02-03T22:11:44.150Z,3.03
2023-02-03T22:14:14.623Z,2.17
2023-02-03T22:16:45.757Z,1.87
2023-02-03T22:19:17.912Z,2.50
2023-02-03T22:21:49.189Z,2.40
2023-02-03T22:24:18.526Z,1.70
2023-02-03T22:26:48.013Z,1.97
2023-02-03T22:29:17.149Z,1.47
2023-02-03T22:31:47.912Z,1.67
2023-02-03T22:34:17.767Z,1.60
2023-02-03T22:36:46.592Z,1.37
2023-02-03T22:39:15.700Z,1.93
2023-02-03T22:41:44.563Z,1.90
2023-02-03T22:44:16.540Z,2.30
2023-02-03T22:46:48.240Z,1.60
2023-02-03T22:49:17.563Z,1.50
2023-02-03T22:51:46.777Z,1.33
2023-02-03T22:54:16.599Z,1.50
2023-02-03T22:56:45.772Z,1.60
2023-02-03T22:59:14.906Z,1.50
2023-02-03T23:01:44.268Z,1.27
2023-02-03T23:04:14.539Z,1.33
2023-02-03T23:06:43.301Z,1.40
2023-02-03T23:09:12.576Z,1.63
2023-02-03T23:11:41.133Z,1.33
2023-02-03T23:14:10.457Z,1.33
2023-02-03T23:16:39.707Z,1.07
2023-02-03T23:19:09.360Z,1.00
2023-02-03T23:21:39.894Z,1.30
2023-02-03T23:24:09.995Z,1.40
2023-02-03T23:26:39.436Z,1.10
2023-02-03T23:29:08.454Z,1.27
2023-02-03T23:31:37.547Z,1.90
2023-02-03T23:34:24.129Z,1.00
2023-02-03T23:36:54.215Z,1.47
2023-02-03T23:39:23.255Z,1.30
2023-02-03T23:41:52.216Z,1.37
2023-02-03T23:44:21.713Z,1.50
2023-02-03T23:46:51.865Z,1.13
2023-02-03T23:49:21.084Z,0.97
2023-02-03T23:51:50.524Z,0.93
2023-02-03T23:54:21.850Z,0.70
2023-02-03T23:56:51.447Z,1.00
2023-02-03T23:59:20.589Z,0.90
